<?xml version="1.0" encoding="UTF-8" standalone="no" ?>
<gpx xmlns="http://www.topografix.com/GPX/1/1" xmlns:xsi="http://www.w3.org/2001/XMLSchema-instance" xsi:schemaLocation="http://www.topografix.com/GPX/1/1 http://www.topografix.com/GPX/1/1/gpx.xsd" version="1.1" creator="VisuGPX - https://www.visugpx.com">
  <metadata>
    <name>Randonnée 12 km Liergues</name>
    <desc><![CDATA[Randonnée de 12 km à Liergues (Beaujolais)]]></desc>
  </metadata>
  <wpt lat="45.97082" lon="4.66409">
    <ele>242.3</ele>
  </wpt>
  <wpt lat="45.9643" lon="4.62977">
    <ele>291</ele>
  </wpt>
  <trk>
    <name><![CDATA[SityTrail - Randonnée 12 km Liergues]]></name>
    <extensions>
      <line xmlns="http://www.topografix.com/GPX/gpx_style/0/2">
        <color>0000FF</color>
        <opacity>0.5</opacity>
        <width>7</width>
      </line>
    </extensions>
    <trkseg>
      <trkpt lat="45.97087" lon="4.66391">
        <ele>242</ele>
        <time>2022-08-22T18:03:49Z</time>
      </trkpt>
      <trkpt lat="45.97188" lon="4.6641">
        <ele>247.9</ele>
      </trkpt>
      <trkpt lat="45.97194" lon="4.66398">
        <ele>248.3</ele>
        <time>2022-08-22T18:06:53Z</time>
      </trkpt>
      <trkpt lat="45.97191" lon="4.66317">
        <ele>246.7</ele>
        <time>2022-08-22T18:12:20Z</time>
      </trkpt>
      <trkpt lat="45.97198" lon="4.66258">
        <ele>247</ele>
        <time>2022-08-22T18:14:34Z</time>
      </trkpt>
      <trkpt lat="45.97192" lon="4.6616">
        <ele>249</ele>
        <time>2022-08-22T18:15:41Z</time>
      </trkpt>
      <trkpt lat="45.97202" lon="4.66094">
        <ele>256</ele>
        <time>2022-08-22T18:16:44Z</time>
      </trkpt>
      <trkpt lat="45.97227" lon="4.6606">
        <ele>257</ele>
        <time>2022-08-22T18:27:18Z</time>
      </trkpt>
      <trkpt lat="45.97233" lon="4.66016">
        <ele>255.3</ele>
        <time>2022-08-22T18:31:50Z</time>
      </trkpt>
      <trkpt lat="45.9723" lon="4.65993">
        <ele>259</ele>
        <time>2022-08-22T18:32:33Z</time>
      </trkpt>
      <trkpt lat="45.97281" lon="4.6598">
        <ele>254.7</ele>
        <time>2022-08-22T18:35:05Z</time>
      </trkpt>
      <trkpt lat="45.97333" lon="4.66017">
        <ele>256.9</ele>
        <time>2022-08-22T18:36:42Z</time>
      </trkpt>
      <trkpt lat="45.97371" lon="4.65908">
        <ele>260.1</ele>
      </trkpt>
      <trkpt lat="45.974" lon="4.65788">
        <ele>263.2</ele>
      </trkpt>
      <trkpt lat="45.97484" lon="4.65444">
        <ele>272.8</ele>
        <time>2022-08-22T18:37:57Z</time>
      </trkpt>
      <trkpt lat="45.97581" lon="4.65227">
        <ele>279</ele>
        <time>2022-08-22T18:39:43Z</time>
      </trkpt>
      <trkpt lat="45.97564" lon="4.65195">
        <ele>279</ele>
        <time>2022-08-22T18:42:49Z</time>
      </trkpt>
      <trkpt lat="45.97602" lon="4.65134">
        <ele>281.2</ele>
      </trkpt>
      <trkpt lat="45.97632" lon="4.65068">
        <ele>283.5</ele>
      </trkpt>
      <trkpt lat="45.9763" lon="4.65062">
        <ele>283.8</ele>
        <time>2022-08-22T18:43:57Z</time>
      </trkpt>
      <trkpt lat="45.97545" lon="4.65092">
        <ele>283</ele>
        <time>2022-08-22T18:49:30Z</time>
      </trkpt>
      <trkpt lat="45.97554" lon="4.65011">
        <ele>285</ele>
        <time>2022-08-22T18:51:48Z</time>
      </trkpt>
      <trkpt lat="45.97483" lon="4.64978">
        <ele>287</ele>
        <time>2022-08-22T18:59:21Z</time>
      </trkpt>
      <trkpt lat="45.97518" lon="4.64807">
        <ele>291.6</ele>
        <time>2022-08-22T19:04:58Z</time>
      </trkpt>
      <trkpt lat="45.97457" lon="4.64783">
        <ele>290.9</ele>
        <time>2022-08-22T19:07:18Z</time>
      </trkpt>
      <trkpt lat="45.97462" lon="4.64651">
        <ele>295.2</ele>
        <time>2022-08-22T19:16:59Z</time>
      </trkpt>
      <trkpt lat="45.97342" lon="4.64605">
        <ele>293.7</ele>
        <time>2022-08-22T19:23:16Z</time>
      </trkpt>
      <trkpt lat="45.97359" lon="4.64075">
        <ele>310</ele>
        <time>2022-08-22T19:24:39Z</time>
      </trkpt>
      <trkpt lat="45.97241" lon="4.63835">
        <ele>320.3</ele>
        <time>2022-08-22T19:27:40Z</time>
      </trkpt>
      <trkpt lat="45.97235" lon="4.63768">
        <ele>322.8</ele>
      </trkpt>
      <trkpt lat="45.97242" lon="4.63699">
        <ele>324</ele>
        <time>2022-08-22T19:34:22Z</time>
      </trkpt>
      <trkpt lat="45.97384" lon="4.63289">
        <ele>345</ele>
        <time>2022-08-22T19:36:41Z</time>
      </trkpt>
      <trkpt lat="45.97343" lon="4.62883">
        <ele>353.2</ele>
        <time>2022-08-22T19:38:50Z</time>
      </trkpt>
      <trkpt lat="45.97296" lon="4.62857">
        <ele>354.2</ele>
        <time>2022-08-22T19:40:38Z</time>
      </trkpt>
      <trkpt lat="45.97256" lon="4.62787">
        <ele>357.4</ele>
      </trkpt>
      <trkpt lat="45.97226" lon="4.6272">
        <ele>359</ele>
        <time>2022-08-22T19:45:08Z</time>
      </trkpt>
      <trkpt lat="45.9719" lon="4.62598">
        <ele>369</ele>
      </trkpt>
      <trkpt lat="45.97181" lon="4.62535">
        <ele>373.8</ele>
      </trkpt>
      <trkpt lat="45.9718" lon="4.62467">
        <ele>379.5</ele>
      </trkpt>
      <trkpt lat="45.97175" lon="4.62462">
        <ele>380</ele>
        <time>2022-08-22T19:46:26Z</time>
      </trkpt>
      <trkpt lat="45.97131" lon="4.62521">
        <ele>374.6</ele>
      </trkpt>
      <trkpt lat="45.97069" lon="4.62585">
        <ele>368.9</ele>
        <time>2022-08-22T19:48:13Z</time>
      </trkpt>
      <trkpt lat="45.97023" lon="4.62534">
        <ele>370.3</ele>
      </trkpt>
      <trkpt lat="45.96975" lon="4.62495">
        <ele>369.4</ele>
        <time>2022-08-22T19:51:14Z</time>
      </trkpt>
      <trkpt lat="45.96885" lon="4.62524">
        <ele>357</ele>
        <time>2022-08-22T19:52:34Z</time>
      </trkpt>
      <trkpt lat="45.96848" lon="4.62784">
        <ele>351.3</ele>
      </trkpt>
      <trkpt lat="45.96826" lon="4.62859">
        <ele>348.1</ele>
        <time>2022-08-22T19:53:40Z</time>
      </trkpt>
      <trkpt lat="45.96754" lon="4.62831">
        <ele>347.2</ele>
        <time>2022-08-22T19:54:28Z</time>
      </trkpt>
      <trkpt lat="45.96737" lon="4.62967">
        <ele>345.1</ele>
        <time>2022-08-22T19:54:52Z</time>
      </trkpt>
      <trkpt lat="45.96662" lon="4.6295">
        <ele>339.1</ele>
      </trkpt>
      <trkpt lat="45.96582" lon="4.62893">
        <ele>320.9</ele>
        <time>2022-08-22T19:55:34Z</time>
      </trkpt>
      <trkpt lat="45.96569" lon="4.62884">
        <ele>316.4</ele>
      </trkpt>
      <trkpt lat="45.96558" lon="4.62863">
        <ele>313.7</ele>
      </trkpt>
      <trkpt lat="45.96548" lon="4.62818">
        <ele>309</ele>
        <time>2022-08-22T19:56:41Z</time>
      </trkpt>
      <trkpt lat="45.96537" lon="4.62796">
        <ele>305</ele>
      </trkpt>
      <trkpt lat="45.96499" lon="4.62767">
        <ele>299.3</ele>
      </trkpt>
      <trkpt lat="45.96479" lon="4.62758">
        <ele>302</ele>
        <time>2022-08-22T20:00:53Z</time>
      </trkpt>
      <trkpt lat="45.96471" lon="4.6278">
        <ele>302</ele>
        <time>2022-08-22T20:06:15Z</time>
      </trkpt>
      <trkpt lat="45.96467" lon="4.62781">
        <ele>302</ele>
        <time>2022-08-22T20:07:27Z</time>
      </trkpt>
      <trkpt lat="45.96464" lon="4.62804">
        <ele>301</ele>
        <time>2022-08-22T20:08:49Z</time>
      </trkpt>
      <trkpt lat="45.96467" lon="4.62814">
        <ele>301</ele>
        <time>2022-08-22T20:11:28Z</time>
      </trkpt>
      <trkpt lat="45.96463" lon="4.62833">
        <ele>296</ele>
        <time>2022-08-22T20:13:25Z</time>
      </trkpt>
      <trkpt lat="45.96434" lon="4.6281">
        <ele>297.2</ele>
        <time>2022-08-22T20:15:01Z</time>
      </trkpt>
      <trkpt lat="45.96431" lon="4.62815">
        <ele>297.1</ele>
      </trkpt>
      <trkpt lat="45.96463" lon="4.62852">
        <ele>295.3</ele>
        <time>2022-08-22T20:27:05Z</time>
      </trkpt>
      <trkpt lat="45.96457" lon="4.62894">
        <ele>294.3</ele>
      </trkpt>
      <trkpt lat="45.9643" lon="4.62968">
        <ele>291.1</ele>
      </trkpt>
      <trkpt lat="45.9642" lon="4.62975">
        <ele>291</ele>
      </trkpt>
      <trkpt lat="45.96396" lon="4.62981">
        <ele>292.3</ele>
      </trkpt>
      <trkpt lat="45.96391" lon="4.62934">
        <ele>294.2</ele>
      </trkpt>
      <trkpt lat="45.96404" lon="4.62867">
        <ele>296.5</ele>
      </trkpt>
      <trkpt lat="45.96283" lon="4.62794">
        <ele>318</ele>
        <time>2022-08-22T20:29:11Z</time>
      </trkpt>
      <trkpt lat="45.96272" lon="4.62885">
        <ele>310</ele>
        <time>2022-08-22T20:33:51Z</time>
      </trkpt>
      <trkpt lat="45.96239" lon="4.62941">
        <ele>316</ele>
        <time>2022-08-22T20:35:45Z</time>
      </trkpt>
      <trkpt lat="45.96206" lon="4.62972">
        <ele>323.9</ele>
      </trkpt>
      <trkpt lat="45.96173" lon="4.62994">
        <ele>322</ele>
        <time>2022-08-22T20:37:49Z</time>
      </trkpt>
      <trkpt lat="45.96106" lon="4.62999">
        <ele>332.2</ele>
        <time>2022-08-22T20:39:00Z</time>
      </trkpt>
      <trkpt lat="45.96114" lon="4.63116">
        <ele>325.2</ele>
        <time>2022-08-22T20:45:30Z</time>
      </trkpt>
      <trkpt lat="45.96068" lon="4.63166">
        <ele>324</ele>
        <time>2022-08-22T20:48:44Z</time>
      </trkpt>
      <trkpt lat="45.96007" lon="4.63218">
        <ele>324.2</ele>
        <time>2022-08-22T20:50:37Z</time>
      </trkpt>
      <trkpt lat="45.9597" lon="4.63237">
        <ele>322.9</ele>
      </trkpt>
      <trkpt lat="45.9588" lon="4.63319">
        <ele>318.7</ele>
        <time>2022-08-22T20:51:43Z</time>
      </trkpt>
      <trkpt lat="45.95832" lon="4.63414">
        <ele>317.9</ele>
        <time>2022-08-22T20:53:27Z</time>
      </trkpt>
      <trkpt lat="45.9583" lon="4.63476">
        <ele>316.7</ele>
        <time>2022-08-22T20:54:56Z</time>
      </trkpt>
      <trkpt lat="45.95816" lon="4.63515">
        <ele>313.9</ele>
        <time>2022-08-22T20:57:31Z</time>
      </trkpt>
      <trkpt lat="45.95871" lon="4.63775">
        <ele>307.5</ele>
        <time>2022-08-22T20:59:04Z</time>
      </trkpt>
      <trkpt lat="45.95897" lon="4.63881">
        <ele>301</ele>
      </trkpt>
      <trkpt lat="45.95913" lon="4.63892">
        <ele>296</ele>
        <time>2022-08-22T21:00:38Z</time>
      </trkpt>
      <trkpt lat="45.95977" lon="4.63899">
        <ele>294</ele>
        <time>2022-08-22T21:02:21Z</time>
      </trkpt>
      <trkpt lat="45.9604" lon="4.6389">
        <ele>294</ele>
        <time>2022-08-22T21:03:35Z</time>
      </trkpt>
      <trkpt lat="45.9622" lon="4.637">
        <ele>277.2</ele>
        <time>2022-08-22T21:05:18Z</time>
      </trkpt>
      <trkpt lat="45.96229" lon="4.63711">
        <ele>275.8</ele>
      </trkpt>
      <trkpt lat="45.96202" lon="4.6383">
        <ele>271.1</ele>
        <time>2022-08-22T21:06:41Z</time>
      </trkpt>
      <trkpt lat="45.96213" lon="4.63833">
        <ele>271</ele>
      </trkpt>
      <trkpt lat="45.96256" lon="4.6377">
        <ele>273</ele>
        <time>2022-08-22T21:09:37Z</time>
      </trkpt>
      <trkpt lat="45.96263" lon="4.63721">
        <ele>276</ele>
        <time>2022-08-22T21:10:42Z</time>
      </trkpt>
      <trkpt lat="45.96379" lon="4.6358">
        <ele>305</ele>
        <time>2022-08-22T21:13:07Z</time>
      </trkpt>
      <trkpt lat="45.96439" lon="4.63559">
        <ele>316</ele>
        <time>2022-08-22T21:15:21Z</time>
      </trkpt>
      <trkpt lat="45.96483" lon="4.63568">
        <ele>320</ele>
        <time>2022-08-22T21:16:12Z</time>
      </trkpt>
      <trkpt lat="45.96517" lon="4.63636">
        <ele>320</ele>
        <time>2022-08-22T21:17:26Z</time>
      </trkpt>
      <trkpt lat="45.96517" lon="4.63766">
        <ele>310</ele>
        <time>2022-08-22T21:18:26Z</time>
      </trkpt>
      <trkpt lat="45.9656" lon="4.6386">
        <ele>308</ele>
        <time>2022-08-22T21:18:53Z</time>
      </trkpt>
      <trkpt lat="45.96661" lon="4.63969">
        <ele>297</ele>
        <time>2022-08-22T21:19:22Z</time>
      </trkpt>
      <trkpt lat="45.96675" lon="4.641">
        <ele>294</ele>
        <time>2022-08-22T21:20:36Z</time>
      </trkpt>
      <trkpt lat="45.96701" lon="4.64212">
        <ele>287</ele>
        <time>2022-08-22T21:25:11Z</time>
      </trkpt>
      <trkpt lat="45.96755" lon="4.64315">
        <ele>286</ele>
        <time>2022-08-22T21:27:47Z</time>
      </trkpt>
      <trkpt lat="45.96791" lon="4.64392">
        <ele>280</ele>
        <time>2022-08-22T21:31:03Z</time>
      </trkpt>
      <trkpt lat="45.96871" lon="4.64449">
        <ele>272</ele>
        <time>2022-08-22T21:31:42Z</time>
      </trkpt>
      <trkpt lat="45.96917" lon="4.64451">
        <ele>278</ele>
        <time>2022-08-22T21:32:15Z</time>
      </trkpt>
      <trkpt lat="45.96942" lon="4.64473">
        <ele>281</ele>
        <time>2022-08-22T21:34:16Z</time>
      </trkpt>
      <trkpt lat="45.96965" lon="4.64536">
        <ele>282</ele>
        <time>2022-08-22T21:38:12Z</time>
      </trkpt>
      <trkpt lat="45.96981" lon="4.64598">
        <ele>278</ele>
        <time>2022-08-22T21:39:21Z</time>
      </trkpt>
      <trkpt lat="45.9703" lon="4.6467">
        <ele>279</ele>
        <time>2022-08-22T21:42:41Z</time>
      </trkpt>
      <trkpt lat="45.97035" lon="4.64853">
        <ele>274</ele>
        <time>2022-08-22T21:50:11Z</time>
      </trkpt>
      <trkpt lat="45.97048" lon="4.64911">
        <ele>271.9</ele>
        <time>2022-08-22T21:52:53Z</time>
      </trkpt>
      <trkpt lat="45.97082" lon="4.65007">
        <ele>266.9</ele>
        <time>2022-08-22T21:54:15Z</time>
      </trkpt>
      <trkpt lat="45.97035" lon="4.65035">
        <ele>262.3</ele>
        <time>2022-08-22T21:55:20Z</time>
      </trkpt>
      <trkpt lat="45.97013" lon="4.65039">
        <ele>260.3</ele>
      </trkpt>
      <trkpt lat="45.96949" lon="4.65066">
        <ele>259</ele>
      </trkpt>
      <trkpt lat="45.96921" lon="4.65039">
        <ele>259</ele>
      </trkpt>
      <trkpt lat="45.96912" lon="4.65018">
        <ele>259</ele>
      </trkpt>
      <trkpt lat="45.96895" lon="4.65005">
        <ele>260</ele>
      </trkpt>
      <trkpt lat="45.96857" lon="4.64997">
        <ele>261</ele>
      </trkpt>
      <trkpt lat="45.96743" lon="4.64994">
        <ele>276</ele>
      </trkpt>
      <trkpt lat="45.96786" lon="4.6518">
        <ele>273</ele>
      </trkpt>
      <trkpt lat="45.96763" lon="4.65424">
        <ele>261</ele>
      </trkpt>
      <trkpt lat="45.96759" lon="4.65452">
        <ele>261</ele>
      </trkpt>
      <trkpt lat="45.96766" lon="4.65472">
        <ele>259</ele>
      </trkpt>
      <trkpt lat="45.9678" lon="4.6551">
        <ele>258</ele>
      </trkpt>
      <trkpt lat="45.96742" lon="4.65623">
        <ele>260</ele>
      </trkpt>
      <trkpt lat="45.9669" lon="4.65741">
        <ele>265.8</ele>
      </trkpt>
      <trkpt lat="45.96648" lon="4.65861">
        <ele>265.7</ele>
      </trkpt>
      <trkpt lat="45.96673" lon="4.65954">
        <ele>259.7</ele>
      </trkpt>
      <trkpt lat="45.96676" lon="4.66074">
        <ele>251.6</ele>
      </trkpt>
      <trkpt lat="45.96689" lon="4.662">
        <ele>245</ele>
      </trkpt>
      <trkpt lat="45.96981" lon="4.66209">
        <ele>250.8</ele>
      </trkpt>
      <trkpt lat="45.96989" lon="4.66221">
        <ele>250.7</ele>
      </trkpt>
      <trkpt lat="45.96963" lon="4.66403">
        <ele>244.8</ele>
      </trkpt>
      <trkpt lat="45.97029" lon="4.66426">
        <ele>242.6</ele>
      </trkpt>
      <trkpt lat="45.97082" lon="4.66391">
        <ele>242</ele>
      </trkpt>
    </trkseg>
  </trk>
</gpx>